Time;durP1;ratioP1;P1;durP2;ratioP2;P2;SDS_P1;SDS_P2;PMS_P1;PMS_P2;Temp;Humidity;BMP_temperature;BMP_pressure;BME280_temperature;BME280_humidity;BME280_pressure;Samples;Min_cycle;Max_cycle;Signal;HPM_P1;HPM_P2
2021/12/11 00:00:44;;;;;;;;;;;;;;;;;;5092832;28;20019;-74
2021/12/11 00:03:13;;;;;;;;;;;;;;;;;;5092909;28;20073;-73
2021/12/11 00:05:38;;;;;;;;;;;;;;;;;;5092566;28;19915;-73
2021/12/11 00:08:04;;;;;;;;;;;;;;;;;;5092563;28;20431;-72
2021/12/11 00:10:30;;;;;;;;;;;;;;;;;;5092219;28;19929;-73
2021/12/11 00:12:56;;;;;;;;;;;;;;;;;;5092529;28;19912;-74
2021/12/11 00:15:22;;;;;;;;;;;;;;;;;;5092200;28;20510;-73
2021/12/11 00:17:48;;;;;;;;;;;;;;;;;;5094370;28;19908;-72
2021/12/11 00:20:13;;;;;;;;;;;;;;;;;;5096241;28;19908;-72
2021/12/11 00:22:39;;;;;;;;;;;;;;;;;;5096036;28;19916;-72
2021/12/11 00:25:06;;;;;;;;;;;;;;;;;;5096110;28;20283;-73
2021/12/11 00:27:31;;;;;;;;;;;;;;;;;;5096105;28;20272;-73
2021/12/11 00:29:57;;;;;;;;;;;;;;;;;;5077835;28;19923;-73
2021/12/11 00:32:23;;;;;;;;;;;;;;;;;;5095942;28;20379;-72
2021/12/11 00:34:49;;;;;;;;;;;;;;;;;;5096061;28;19908;-72
2021/12/11 00:37:15;;;;;;;;;;;;;;;;;;5095512;28;19977;-73
2021/12/11 00:39:41;;;;;;;;;;;;;;;;;;5095730;28;20003;-72
2021/12/11 00:42:07;;;;;;;;;;;;;;;;;;5095762;28;20006;-73
2021/12/11 00:44:33;;;;;;;;;;;;;;;;;;5095958;28;19908;-73
2021/12/11 00:46:59;;;;;;;;;;;;;;;;;;5095705;28;19959;-74
2021/12/11 00:49:28;;;;;;;;;;;;;;;;;;5095630;28;20276;-74
2021/12/11 00:51:54;;;;;;;;;;;;;;;;;;5095362;28;20415;-74
2021/12/11 00:54:20;;;;;;;;;;;;;;;;;;5095547;28;19908;-74
2021/12/11 00:56:47;;;;;;;;;;;;;;;;;;5095435;28;19908;-74
2021/12/11 00:59:12;;;;;;;;;;;;;;;;;;5095395;28;19920;-73
2021/12/11 01:01:38;;;;;;;;;;;;;;;;;;5103903;28;20286;-74
2021/12/11 01:04:04;;;;;;;;;;;;;;;;;;5105764;28;19972;-73
2021/12/11 01:06:30;;;;;;;;;;;;;;;;;;5102818;28;19918;-73
2021/12/11 01:08:58;;;;;;;;;;;;;;;;;;5105791;28;20159;-73
2021/12/11 01:11:24;;;;;;;;;;;;;;;;;;5102915;28;20011;-73
2021/12/11 01:13:50;;;;;;;;;;;;;;;;;;5105418;28;19999;-74
2021/12/11 01:16:16;;;;;;;;;;;;;;;;;;5104314;28;19965;-72
2021/12/11 01:18:42;;;;;;;;;;;;;;;;;;5104469;28;19919;-72
2021/12/11 01:21:25;;;;;;;;;;;;;;;;;;5104977;28;19912;-73
2021/12/11 01:24:08;;;;;;;;;;;;;;;;;;5105170;28;19980;-73
2021/12/11 01:26:34;;;;;;;;;;;;;;;;;;5103861;28;19912;-73
2021/12/11 01:29:00;;;;;;;;;;;;;;;;;;5084238;28;19919;-73
2021/12/11 01:31:27;;;;;;;;;;;;;;;;;;5084123;28;19974;-73
2021/12/11 01:33:53;;;;;;;;;;;;;;;;;;5105223;28;19923;-73
2021/12/11 01:36:19;;;;;;;;;;;;;;;;;;5085004;28;19911;-73
2021/12/11 01:38:45;;;;;;;;;;;;;;;;;;5104088;28;19961;-73
2021/12/11 01:41:12;;;;;;;;;;;;;;;;;;5086102;28;19912;-73
2021/12/11 01:43:38;;;;;;;;;;;;;;;;;;5102959;28;20314;-74
2021/12/11 01:46:04;;;;;;;;;;;;;;;;;;5105401;28;19919;-74
2021/12/11 01:48:30;;;;;;;;;;;;;;;;;;5105592;28;19990;-74
2021/12/11 01:50:55;;;;;;;;;;;;;;;;;;5101931;28;19924;-73
2021/12/11 01:53:21;;;;;;;;;;;;;;;;;;5106272;28;19912;-73
2021/12/11 01:55:47;;;;;;;;;;;;;;;;;;5104221;28;20327;-73
2021/12/11 01:58:13;;;;;;;;;;;;;;;;;;5103505;28;20001;-73
2021/12/11 02:00:39;;;;;;;;;;;;;;;;;;5102779;28;19912;-72
2021/12/11 02:03:05;;;;;;;;;;;;;;;;;;5100436;28;19916;-74
2021/12/11 02:05:31;;;;;;;;;;;;;;;;;;5101839;28;19946;-72
2021/12/11 02:07:56;;;;;;;;;;;;;;;;;;5105426;28;19911;-74
2021/12/11 02:10:22;;;;;;;;;;;;;;;;;;5101941;28;19928;-73
2021/12/11 02:12:48;;;;;;;;;;;;;;;;;;5103995;28;19912;-73
2021/12/11 02:15:14;;;;;;;;;;;;;;;;;;5103243;28;20315;-72
2021/12/11 02:17:40;;;;;;;;;;;;;;;;;;5102770;28;19912;-72
2021/12/11 02:20:06;;;;;;;;;;;;;;;;;;5104130;28;20434;-73
2021/12/11 02:22:36;;;;;;;;;;;;;;;;;;5105966;28;19947;-74
2021/12/11 02:25:02;;;;;;;;;;;;;;;;;;5101367;28;19912;-74
2021/12/11 02:27:28;;;;;;;;;;;;;;;;;;5104920;28;19912;-73
2021/12/11 02:29:54;;;;;;;;;;;;;;;;;;5101610;28;19960;-73
2021/12/11 02:32:22;;;;;;;;;;;;;;;;;;5103667;28;19913;-72
2021/12/11 02:34:48;;;;;;;;;;;;;;;;;;5084311;28;19919;-73
2021/12/11 02:37:13;;;;;;;;;;;;;;;;;;5102751;28;19923;-73
2021/12/11 02:39:39;;;;;;;;;;;;;;;;;;5104220;28;19912;-74
2021/12/11 02:42:05;;;;;;;;;;;;;;;;;;5104090;28;20376;-72
2021/12/11 02:44:31;;;;;;;;;;;;;;;;;;5100947;28;20423;-73
2021/12/11 02:46:57;;;;;;;;;;;;;;;;;;5108492;28;19915;-72
2021/12/11 02:49:23;;;;;;;;;;;;;;;;;;5101300;28;19916;-74
2021/12/11 02:51:49;;;;;;;;;;;;;;;;;;5103377;28;19916;-74
2021/12/11 02:54:15;;;;;;;;;;;;;;;;;;5102479;28;20324;-73
2021/12/11 02:56:43;;;;;;;;;;;;;;;;;;5102133;28;19912;-73
2021/12/11 02:59:10;;;;;;;;;;;;;;;;;;5103271;28;20268;-72
2021/12/11 03:01:36;;;;;;;;;;;;;;;;;;5101460;28;19965;-74
2021/12/11 03:04:06;;;;;;;;;;;;;;;;;;5104391;28;20014;-72
2021/12/11 03:06:39;;;;;;;;;;;;;;;;;;5097381;28;20023;-73
2021/12/11 03:09:05;;;;;;;;;;;;;;;;;;5085289;28;20468;-73
2021/12/11 03:11:32;;;;;;;;;;;;;;;;;;5100627;28;19931;-73
2021/12/11 03:13:58;;;;;;;;;;;;;;;;;;5085956;28;19935;-73
2021/12/11 03:16:24;;;;;;;;;;;;;;;;;;5101000;28;19916;-73
2021/12/11 03:18:50;;;;;;;;;;;;;;;;;;5103240;28;19912;-74
2021/12/11 03:21:15;;;;;;;;;;;;;;;;;;5102120;28;19912;-73
2021/12/11 03:23:41;;;;;;;;;;;;;;;;;;5104898;28;20279;-74
2021/12/11 03:26:07;;;;;;;;;;;;;;;;;;5101042;28;19912;-72
2021/12/11 03:28:33;;;;;;;;;;;;;;;;;;5103819;28;19912;-73
2021/12/11 03:31:00;;;;;;;;;;;;;;;;;;5100368;28;19920;-73
2021/12/11 03:33:25;;;;;;;;;;;;;;;;;;5103763;28;19912;-73
2021/12/11 03:35:51;;;;;;;;;;;;;;;;;;5101113;28;19934;-73
2021/12/11 03:38:17;;;;;;;;;;;;;;;;;;5102576;28;19919;-73
2021/12/11 03:40:43;;;;;;;;;;;;;;;;;;5102096;28;19911;-72
2021/12/11 03:43:09;;;;;;;;;;;;;;;;;;5100981;28;19916;-74
2021/12/11 03:45:35;;;;;;;;;;;;;;;;;;5103342;28;19911;-73
2021/12/11 03:48:01;;;;;;;;;;;;;;;;;;5100519;28;19912;-73
2021/12/11 03:50:27;;;;;;;;;;;;;;;;;;5103726;28;19920;-74
2021/12/11 03:52:54;;;;;;;;;;;;;;;;;;5103060;28;19916;-72
2021/12/11 03:55:20;;;;;;;;;;;;;;;;;;5106413;28;19999;-73
2021/12/11 03:57:46;;;;;;;;;;;;;;;;;;5105805;28;20031;-73
2021/12/11 04:00:12;;;;;;;;;;;;;;;;;;5105409;28;19916;-72
2021/12/11 04:02:38;;;;;;;;;;;;;;;;;;5103514;28;19973;-74
2021/12/11 04:05:03;;;;;;;;;;;;;;;;;;5107849;28;19919;-74
2021/12/11 04:07:29;;;;;;;;;;;;;;;;;;5104158;28;19916;-74
2021/12/11 04:09:55;;;;;;;;;;;;;;;;;;5106995;28;20038;-74
2021/12/11 04:12:21;;;;;;;;;;;;;;;;;;5086475;28;19912;-73
2021/12/11 04:14:47;;;;;;;;;;;;;;;;;;5106168;28;20007;-74
2021/12/11 04:17:13;;;;;;;;;;;;;;;;;;5105841;28;19916;-74
2021/12/11 04:19:39;;;;;;;;;;;;;;;;;;5103873;28;19937;-74
2021/12/11 04:22:05;;;;;;;;;;;;;;;;;;5103967;28;19965;-74
2021/12/11 04:24:30;;;;;;;;;;;;;;;;;;5107311;28;19911;-74
2021/12/11 04:26:56;;;;;;;;;;;;;;;;;;5085354;28;20372;-73
2021/12/11 04:29:22;;;;;;;;;;;;;;;;;;5106304;28;19920;-73
2021/12/11 04:31:48;;;;;;;;;;;;;;;;;;5104731;28;19911;-73
2021/12/11 04:34:14;;;;;;;;;;;;;;;;;;5105536;28;19912;-74
2021/12/11 04:36:40;;;;;;;;;;;;;;;;;;5088547;28;19912;-72
2021/12/11 04:39:06;;;;;;;;;;;;;;;;;;5104093;28;20321;-73
2021/12/11 04:41:36;;;;;;;;;;;;;;;;;;5106774;28;19912;-73
2021/12/11 04:44:02;;;;;;;;;;;;;;;;;;5103554;28;19916;-73
2021/12/11 04:46:28;;;;;;;;;;;;;;;;;;5107247;28;19912;-73
2021/12/11 04:59:14;;;;;;;;;;;;;;;;;;5106320;28;19922;-74
2021/12/11 05:01:56;;;;;;;;;;;;;;;;;;5101744;28;19919;-74
2021/12/11 05:04:44;;;;;;;;;;;;;;;;;;5102176;28;19942;-74
2021/12/11 05:07:26;;;;;;;;;;;;;;;;;;5096749;28;20383;-74
2021/12/11 05:10:00;;;;;;;;;;;;;;;;;;5095262;28;20129;-74
2021/12/11 05:12:34;;;;;;;;;;;;;;;;;;5095213;28;19908;-74
2021/12/11 05:14:59;;;;;;;;;;;;;;;;;;5094912;28;19954;-74
2021/12/11 05:17:25;;;;;;;;;;;;;;;;;;5095202;28;20325;-73
2021/12/11 05:19:51;;;;;;;;;;;;;;;;;;5095193;28;19908;-73
2021/12/11 05:22:17;;;;;;;;;;;;;;;;;;5095031;28;20007;-72
2021/12/11 05:24:43;;;;;;;;;;;;;;;;;;5095055;28;19908;-73
2021/12/11 05:27:09;;;;;;;;;;;;;;;;;;5094958;28;20372;-73
2021/12/11 05:29:35;;;;;;;;;;;;;;;;;;5094883;28;19908;-74
2021/12/11 05:32:00;;;;;;;;;;;;;;;;;;5095011;28;19912;-73
2021/12/11 05:34:26;;;;;;;;;;;;;;;;;;5094945;28;19916;-73
2021/12/11 05:36:52;;;;;;;;;;;;;;;;;;5094462;28;19912;-74
2021/12/11 05:39:18;;;;;;;;;;;;;;;;;;5094558;28;19908;-72
2021/12/11 05:41:44;;;;;;;;;;;;;;;;;;5094760;28;19916;-73
2021/12/11 05:44:10;;;;;;;;;;;;;;;;;;5094749;28;20368;-72
2021/12/11 05:46:35;;;;;;;;;;;;;;;;;;5094557;28;19912;-73
2021/12/11 05:49:01;;;;;;;;;;;;;;;;;;5094667;28;19994;-73
2021/12/11 05:51:27;;;;;;;;;;;;;;;;;;5094519;28;20306;-72
2021/12/11 05:53:53;;;;;;;;;;;;;;;;;;5076311;28;19916;-73
2021/12/11 05:56:19;;;;;;;;;;;;;;;;;;5094158;28;20003;-73
2021/12/11 06:01:17;;;;;;;;;;;;;;;;;;5094629;28;19911;-72
2021/12/11 06:03:43;;;;;;;;;;;;;;;;;;5094421;28;19999;-73
2021/12/11 06:06:09;;;;;;;;;;;;;;;;;;5098458;28;19912;-73
2021/12/11 06:08:35;;;;;;;;;;;;;;;;;;5098326;28;19909;-72
2021/12/11 06:11:00;;;;;;;;;;;;;;;;;;5094487;28;19920;-72
2021/12/11 06:13:29;;;;;;;;;;;;;;;;;;5094053;28;19912;-73
2021/12/11 06:15:55;;;;;;;;;;;;;;;;;;5093554;28;19908;-73
2021/12/11 06:18:21;;;;;;;;;;;;;;;;;;5093967;28;19908;-73
2021/12/11 06:20:47;;;;;;;;;;;;;;;;;;5094081;28;19916;-73
2021/12/11 06:23:13;;;;;;;;;;;;;;;;;;5093786;28;19911;-72
2021/12/11 06:25:39;;;;;;;;;;;;;;;;;;5093918;28;20425;-73
2021/12/11 06:28:05;;;;;;;;;;;;;;;;;;5076153;28;20287;-73
2021/12/11 06:30:31;;;;;;;;;;;;;;;;;;5095394;28;20015;-73
2021/12/11 06:32:57;;;;;;;;;;;;;;;;;;5094524;28;20282;-74
2021/12/11 06:35:22;;;;;;;;;;;;;;;;;;5093503;28;19944;-74
2021/12/11 06:37:48;;;;;;;;;;;;;;;;;;5093626;28;20406;-74
2021/12/11 06:40:14;;;;;;;;;;;;;;;;;;5075211;28;19919;-74
2021/12/11 06:42:40;;;;;;;;;;;;;;;;;;5093664;28;19908;-74
2021/12/11 06:45:06;;;;;;;;;;;;;;;;;;5093722;28;20268;-74
2021/12/11 06:47:32;;;;;;;;;;;;;;;;;;5075462;28;19961;-74
2021/12/11 06:49:58;;;;;;;;;;;;;;;;;;5093544;28;19918;-74
2021/12/11 06:52:24;;;;;;;;;;;;;;;;;;5092851;28;20003;-74
2021/12/11 06:54:49;;;;;;;;;;;;;;;;;;5093554;28;20249;-74
2021/12/11 06:57:15;;;;;;;;;;;;;;;;;;5093581;28;19908;-74
2021/12/11 06:59:41;;;;;;;;;;;;;;;;;;5075372;28;19915;-74
2021/12/11 07:02:07;;;;;;;;;;;;;;;;;;5093370;28;19912;-73
2021/12/11 07:04:33;;;;;;;;;;;;;;;;;;5093446;28;19915;-73
2021/12/11 07:06:59;;;;;;;;;;;;;;;;;;5093238;28;19968;-73
2021/12/11 07:09:25;;;;;;;;;;;;;;;;;;5092973;28;19916;-73
2021/12/11 07:11:52;;;;;;;;;;;;;;;;;;5093084;28;19908;-73
2021/12/11 07:14:18;;;;;;;;;;;;;;;;;;5093385;28;19908;-73
2021/12/11 07:16:44;;;;;;;;;;;;;;;;;;5093169;28;19997;-74
2021/12/11 07:19:09;;;;;;;;;;;;;;;;;;5075165;28;19915;-72
2021/12/11 07:21:35;;;;;;;;;;;;;;;;;;5074907;28;20346;-72
2021/12/11 07:24:01;;;;;;;;;;;;;;;;;;5092536;28;19986;-74
2021/12/11 07:26:34;;;;;;;;;;;;;;;;;;5094292;28;19969;-74
2021/12/11 07:29:02;;;;;;;;;;;;;;;;;;5094830;28;19908;-74
2021/12/11 07:31:28;;;;;;;;;;;;;;;;;;5096609;28;20014;-74
2021/12/11 07:33:54;;;;;;;;;;;;;;;;;;5078708;28;20383;-74
2021/12/11 07:36:19;;;;;;;;;;;;;;;;;;5096578;28;20003;-73
2021/12/11 07:38:45;;;;;;;;;;;;;;;;;;5097170;28;19908;-74
2021/12/11 07:41:11;;;;;;;;;;;;;;;;;;5097145;28;19908;-74
2021/12/11 07:43:37;;;;;;;;;;;;;;;;;;5078829;28;19912;-74
2021/12/11 07:46:03;;;;;;;;;;;;;;;;;;5096848;28;20257;-74
2021/12/11 07:48:29;;;;;;;;;;;;;;;;;;5097001;28;19908;-74
2021/12/11 07:50:55;;;;;;;;;;;;;;;;;;5078597;28;19916;-72
2021/12/11 07:53:20;;;;;;;;;;;;;;;;;;5078678;28;19908;-74
2021/12/11 07:55:46;;;;;;;;;;;;;;;;;;5078422;28;19912;-73
2021/12/11 07:58:12;;;;;;;;;;;;;;;;;;5096601;28;19908;-74
2021/12/11 08:00:38;;;;;;;;;;;;;;;;;;5096623;28;19912;-72
2021/12/11 08:03:05;;;;;;;;;;;;;;;;;;5096589;28;20409;-73
2021/12/11 08:05:31;;;;;;;;;;;;;;;;;;5096469;28;19908;-72
2021/12/11 08:08:02;;;;;;;;;;;;;;;;;;5096511;28;19919;-73
2021/12/11 08:10:28;;;;;;;;;;;;;;;;;;5096090;28;19920;-73
2021/12/11 08:12:53;;;;;;;;;;;;;;;;;;5096276;28;20006;-73
2021/12/11 08:15:19;;;;;;;;;;;;;;;;;;5096842;28;19908;-73
2021/12/11 08:17:51;;;;;;;;;;;;;;;;;;5096315;28;20361;-73
2021/12/11 08:20:17;;;;;;;;;;;;;;;;;;5096230;28;20006;-73
2021/12/11 08:22:43;;;;;;;;;;;;;;;;;;5101045;28;19951;-74
2021/12/11 08:25:08;;;;;;;;;;;;;;;;;;5102607;28;19916;-73
2021/12/11 08:27:34;;;;;;;;;;;;;;;;;;5101792;28;19943;-73
2021/12/11 08:30:00;;;;;;;;;;;;;;;;;;5098472;28;19916;-73
2021/12/11 08:32:26;;;;;;;;;;;;;;;;;;5096637;28;19908;-72
2021/12/11 08:34:52;;;;;;;;;;;;;;;;;;5096054;28;19955;-73
2021/12/11 08:37:18;;;;;;;;;;;;;;;;;;5095483;28;19911;-73
2021/12/11 08:39:44;;;;;;;;;;;;;;;;;;5095148;28;20004;-73
2021/12/11 08:42:10;;;;;;;;;;;;;;;;;;5077429;28;19908;-73
2021/12/11 08:44:38;;;;;;;;;;;;;;;;;;5095407;28;19908;-73
2021/12/11 08:47:04;;;;;;;;;;;;;;;;;;5095560;28;19909;-75
2021/12/11 08:49:29;;;;;;;;;;;;;;;;;;5077192;28;19919;-73
2021/12/11 08:51:55;;;;;;;;;;;;;;;;;;5077373;28;20086;-74
2021/12/11 08:54:21;;;;;;;;;;;;;;;;;;5095718;28;19904;-74
2021/12/11 08:56:47;;;;;;;;;;;;;;;;;;5095721;28;19912;-73
2021/12/11 08:59:13;;;;;;;;;;;;;;;;;;5095345;28;19904;-72
2021/12/11 09:01:39;;;;;;;;;;;;;;;;;;5077371;28;19908;-73
2021/12/11 09:04:05;;;;;;;;;;;;;;;;;;5077439;28;19938;-73
2021/12/11 09:06:32;;;;;;;;;;;;;;;;;;5077438;28;20267;-73
2021/12/11 09:08:57;;;;;;;;;;;;;;;;;;5095338;28;19922;-73
2021/12/11 09:11:25;;;;;;;;;;;;;;;;;;5095456;28;20410;-73
2021/12/11 09:13:53;;;;;;;;;;;;;;;;;;5095322;28;19912;-73
2021/12/11 09:16:19;;;;;;;;;;;;;;;;;;5095272;28;20003;-73
2021/12/11 09:18:45;;;;;;;;;;;;;;;;;;5095340;28;19997;-73
2021/12/11 09:21:10;;;;;;;;;;;;;;;;;;5095208;28;19912;-73
2021/12/11 09:23:38;;;;;;;;;;;;;;;;;;5077188;28;20351;-74
2021/12/11 09:26:04;;;;;;;;;;;;;;;;;;5095369;28;19908;-74
2021/12/11 09:28:30;;;;;;;;;;;;;;;;;;5095135;28;20307;-74
2021/12/11 09:30:56;;;;;;;;;;;;;;;;;;5076756;28;19923;-73
2021/12/11 09:33:22;;;;;;;;;;;;;;;;;;5094997;28;20257;-75
2021/12/11 09:35:47;;;;;;;;;;;;;;;;;;5094871;28;20002;-72
2021/12/11 09:38:13;;;;;;;;;;;;;;;;;;5094805;28;19915;-71
2021/12/11 09:40:39;;;;;;;;;;;;;;;;;;5094568;28;19908;-71
2021/12/11 09:43:05;;;;;;;;;;;;;;;;;;5094248;28;19912;-71
2021/12/11 09:45:31;;;;;;;;;;;;;;;;;;5094487;28;19908;-72
2021/12/11 09:47:57;;;;;;;;;;;;;;;;;;5094638;28;19982;-71
2021/12/11 09:50:23;;;;;;;;;;;;;;;;;;5075193;28;19927;-73
2021/12/11 09:52:49;;;;;;;;;;;;;;;;;;5094465;28;19983;-72
2021/12/11 09:55:15;;;;;;;;;;;;;;;;;;5094218;28;19998;-72
2021/12/11 09:57:42;;;;;;;;;;;;;;;;;;5076099;28;19943;-72
2021/12/11 10:00:08;;;;;;;;;;;;;;;;;;5094346;28;19908;-72
2021/12/11 10:02:34;;;;;;;;;;;;;;;;;;5076076;28;19958;-73
2021/12/11 10:05:01;;;;;;;;;;;;;;;;;;5094180;28;19915;-72
2021/12/11 10:07:33;;;;;;;;;;;;;;;;;;5094339;28;19943;-73
2021/12/11 10:09:59;;;;;;;;;;;;;;;;;;5075810;28;19973;-74
2021/12/11 10:12:25;;;;;;;;;;;;;;;;;;5093945;28;20314;-71
2021/12/11 10:14:51;;;;;;;;;;;;;;;;;;5093036;28;19958;-72
2021/12/11 10:17:17;;;;;;;;;;;;;;;;;;5093668;28;19924;-73
2021/12/11 10:19:43;;;;;;;;;;;;;;;;;;5094288;28;19915;-72
2021/12/11 10:22:09;;;;;;;;;;;;;;;;;;5094014;28;20213;-74
2021/12/11 10:24:35;;;;;;;;;;;;;;;;;;5093948;28;19908;-74
2021/12/11 10:27:01;;;;;;;;;;;;;;;;;;5075613;28;20276;-73
2021/12/11 10:29:27;;;;;;;;;;;;;;;;;;5093419;28;19912;-72
2021/12/11 10:31:52;;;;;;;;;;;;;;;;;;5075249;28;19927;-73
2021/12/11 10:34:18;;;;;;;;;;;;;;;;;;5075568;28;19912;-72
2021/12/11 10:36:44;;;;;;;;;;;;;;;;;;5093738;28;20306;-71
2021/12/11 10:39:10;;;;;;;;;;;;;;;;;;5093561;28;19948;-71
2021/12/11 10:41:36;;;;;;;;;;;;;;;;;;5093458;28;20375;-73
2021/12/11 10:44:02;;;;;;;;;;;;;;;;;;5093491;28;20376;-72
2021/12/11 10:46:28;;;;;;;;;;;;;;;;;;5092971;28;20357;-72
2021/12/11 10:48:54;;;;;;;;;;;;;;;;;;5075194;28;19958;-72
2021/12/11 10:51:19;;;;;;;;;;;;;;;;;;5093359;28;19916;-71
2021/12/11 10:53:46;;;;;;;;;;;;;;;;;;5093136;28;19908;-71
2021/12/11 10:56:12;;;;;;;;;;;;;;;;;;5075227;28;19999;-71
2021/12/11 10:58:38;;;;;;;;;;;;;;;;;;5092880;28;19908;-69
2021/12/11 11:01:04;;;;;;;;;;;;;;;;;;5092825;28;20320;-71
2021/12/11 11:03:30;;;;;;;;;;;;;;;;;;5093147;28;19912;-71
2021/12/11 11:05:55;;;;;;;;;;;;;;;;;;5092961;28;19908;-74
2021/12/11 11:08:22;;;;;;;;;;;;;;;;;;5093180;28;20028;-73
2021/12/11 11:10:48;;;;;;;;;;;;;;;;;;5074691;28;19946;-73
2021/12/11 11:13:15;;;;;;;;;;;;;;;;;;5092387;28;21294;-74
2021/12/11 11:15:41;;;;;;;;;;;;;;;;;;5093161;28;19999;-74
2021/12/11 11:18:07;;;;;;;;;;;;;;;;;;5093079;28;19908;-73
2021/12/11 11:20:33;;;;;;;;;;;;;;;;;;5093167;28;19908;-74
2021/12/11 11:22:59;;;;;;;;;;;;;;;;;;5092945;28;19904;-72
2021/12/11 11:25:25;;;;;;;;;;;;;;;;;;5074448;28;20376;-72
2021/12/11 11:27:52;;;;;;;;;;;;;;;;;;5093006;28;19904;-72
2021/12/11 11:30:20;;;;;;;;;;;;;;;;;;5092894;28;19916;-73
2021/12/11 11:32:46;;;;;;;;;;;;;;;;;;5074886;28;19950;-73
2021/12/11 11:35:12;;;;;;;;;;;;;;;;;;5092874;28;19951;-72
2021/12/11 11:37:38;;;;;;;;;;;;;;;;;;5092972;28;19912;-74
2021/12/11 11:40:03;;;;;;;;;;;;;;;;;;5092829;28;19991;-73
2021/12/11 11:42:29;;;;;;;;;;;;;;;;;;5092848;28;19963;-72
2021/12/11 11:44:55;;;;;;;;;;;;;;;;;;5092926;28;19908;-73
2021/12/11 11:47:21;;;;;;;;;;;;;;;;;;5092947;28;19915;-75
2021/12/11 11:49:47;;;;;;;;;;;;;;;;;;5092634;28;19912;-74
2021/12/11 11:52:13;;;;;;;;;;;;;;;;;;5092739;28;19912;-74
2021/12/11 11:54:39;;;;;;;;;;;;;;;;;;5092620;28;19965;-74
2021/12/11 11:57:05;;;;;;;;;;;;;;;;;;5074608;28;19914;-75
2021/12/11 11:59:31;;;;;;;;;;;;;;;;;;5092750;28;20006;-74
2021/12/11 12:01:56;;;;;;;;;;;;;;;;;;5092742;28;20330;-74
2021/12/11 12:04:22;;;;;;;;;;;;;;;;;;5092627;28;19995;-74
2021/12/11 12:06:51;;;;;;;;;;;;;;;;;;5092667;28;19962;-74
2021/12/11 12:09:17;;;;;;;;;;;;;;;;;;5092214;28;19964;-74
2021/12/11 12:11:43;;;;;;;;;;;;;;;;;;5092502;28;19974;-74
2021/12/11 12:14:08;;;;;;;;;;;;;;;;;;5095140;28;19908;-74
2021/12/11 12:16:34;;;;;;;;;;;;;;;;;;5096240;28;19909;-74
2021/12/11 12:19:00;;;;;;;;;;;;;;;;;;5096379;28;19977;-74
2021/12/11 12:21:26;;;;;;;;;;;;;;;;;;5096241;28;19911;-74
2021/12/11 12:23:52;;;;;;;;;;;;;;;;;;5077850;28;20280;-74
2021/12/11 12:26:18;;;;;;;;;;;;;;;;;;5096075;28;19904;-74
2021/12/11 12:28:44;;;;;;;;;;;;;;;;;;5096056;28;19908;-74
2021/12/11 12:31:10;;;;;;;;;;;;;;;;;;5096228;28;19969;-75
2021/12/11 12:33:35;;;;;;;;;;;;;;;;;;5095999;28;20249;-74
2021/12/11 12:36:01;;;;;;;;;;;;;;;;;;5096027;28;19908;-74
2021/12/11 12:38:27;;;;;;;;;;;;;;;;;;5095798;28;20356;-74
2021/12/11 12:40:58;;;;;;;;;;;;;;;;;;5095830;28;19912;-74
2021/12/11 12:43:53;;;;;;;;;;;;;;;;;;5096243;28;19935;-74
2021/12/11 12:46:13;;;;;;;;;;;;;;;;;;5095689;28;19953;-74
2021/12/11 12:48:39;;;;;;;;;;;;;;;;;;5095548;28;19908;-74
2021/12/11 12:51:05;;;;;;;;;;;;;;;;;;5095520;28;19955;-74
2021/12/11 12:53:33;;;;;;;;;;;;;;;;;;5077418;28;19912;-74
2021/12/11 12:55:59;;;;;;;;;;;;;;;;;;5095651;28;20271;-74
2021/12/11 12:58:25;;;;;;;;;;;;;;;;;;5095267;28;19960;-74
2021/12/11 13:00:51;;;;;;;;;;;;;;;;;;5095294;28;20272;-74
2021/12/11 13:03:16;;;;;;;;;;;;;;;;;;5095255;28;20002;-74
2021/12/11 13:05:42;;;;;;;;;;;;;;;;;;5095327;28;19916;-73
2021/12/11 13:08:08;;;;;;;;;;;;;;;;;;5076638;28;19912;-74
2021/12/11 13:10:34;;;;;;;;;;;;;;;;;;5076476;28;19926;-74
2021/12/11 13:13:00;;;;;;;;;;;;;;;;;;5077067;28;19908;-73
2021/12/11 13:15:26;;;;;;;;;;;;;;;;;;5095289;28;20354;-72
2021/12/11 13:17:52;;;;;;;;;;;;;;;;;;5094890;28;19908;-72
2021/12/11 13:20:17;;;;;;;;;;;;;;;;;;5095069;28;20015;-72
2021/12/11 13:22:43;;;;;;;;;;;;;;;;;;5095036;28;20069;-72
2021/12/11 13:25:09;;;;;;;;;;;;;;;;;;5094881;28;19915;-72
2021/12/11 13:27:35;;;;;;;;;;;;;;;;;;5095127;28;19908;-72
2021/12/11 13:30:01;;;;;;;;;;;;;;;;;;5094755;28;20276;-72
2021/12/11 13:32:27;;;;;;;;;;;;;;;;;;5094838;28;19951;-72
2021/12/11 13:34:53;;;;;;;;;;;;;;;;;;5094462;28;19915;-72
2021/12/11 13:37:19;;;;;;;;;;;;;;;;;;5094828;28;20429;-72
2021/12/11 13:39:45;;;;;;;;;;;;;;;;;;5094586;28;19908;-72
2021/12/11 13:42:10;;;;;;;;;;;;;;;;;;5094481;28;19904;-71
2021/12/11 13:44:36;;;;;;;;;;;;;;;;;;5094588;28;19915;-72
2021/12/11 13:47:02;;;;;;;;;;;;;;;;;;5094566;28;19916;-72
2021/12/11 13:49:28;;;;;;;;;;;;;;;;;;5096434;28;19911;-72
2021/12/11 13:51:54;;;;;;;;;;;;;;;;;;5103370;28;20261;-72
2021/12/11 13:54:20;;;;;;;;;;;;;;;;;;5104129;28;19957;-72
2021/12/11 13:56:46;;;;;;;;;;;;;;;;;;5107151;28;20295;-72
2021/12/11 13:59:12;;;;;;;;;;;;;;;;;;5096475;28;19907;-72
2021/12/11 14:01:37;;;;;;;;;;;;;;;;;;5114595;28;20359;-72
2021/12/11 14:04:06;;;;;;;;;;;;;;;;;;5114447;28;19908;-72
2021/12/11 14:06:32;;;;;;;;;;;;;;;;;;5114585;28;20428;-72
2021/12/11 14:09:05;;;;;;;;;;;;;;;;;;5096251;28;20014;-72
2021/12/11 14:11:31;;;;;;;;;;;;;;;;;;5114516;28;19923;-72
2021/12/11 14:13:57;;;;;;;;;;;;;;;;;;5114330;28;20295;-72
2021/12/11 14:16:23;;;;;;;;;;;;;;;;;;5114277;28;19995;-72
2021/12/11 14:18:49;;;;;;;;;;;;;;;;;;5114377;28;19907;-72
2021/12/11 14:21:16;;;;;;;;;;;;;;;;;;5114336;28;19907;-72
2021/12/11 14:23:42;;;;;;;;;;;;;;;;;;5114351;28;20007;-72
2021/12/11 14:26:08;;;;;;;;;;;;;;;;;;5113773;28;19908;-72
2021/12/11 14:28:34;;;;;;;;;;;;;;;;;;5114217;28;19908;-72
2021/12/11 14:31:00;;;;;;;;;;;;;;;;;;5095545;28;19919;-72
2021/12/11 14:33:26;;;;;;;;;;;;;;;;;;5114145;28;19907;-72
2021/12/11 14:35:52;;;;;;;;;;;;;;;;;;5113521;28;19961;-72
2021/12/11 14:38:18;;;;;;;;;;;;;;;;;;5114065;28;20007;-72
2021/12/11 14:40:43;;;;;;;;;;;;;;;;;;5113830;28;20303;-72
2021/12/11 14:43:09;;;;;;;;;;;;;;;;;;5113854;28;19908;-72
2021/12/11 14:45:35;;;;;;;;;;;;;;;;;;5113951;28;19912;-72
2021/12/11 14:48:01;;;;;;;;;;;;;;;;;;5113903;28;19908;-72
2021/12/11 14:50:28;;;;;;;;;;;;;;;;;;5113819;28;19939;-72
2021/12/11 14:52:53;;;;;;;;;;;;;;;;;;5113878;28;19918;-72
2021/12/11 14:55:19;;;;;;;;;;;;;;;;;;5113772;28;19908;-72
2021/12/11 14:57:45;;;;;;;;;;;;;;;;;;5113756;28;19911;-72
2021/12/11 15:00:11;;;;;;;;;;;;;;;;;;5113661;28;19908;-72
2021/12/11 15:02:37;;;;;;;;;;;;;;;;;;5095320;28;19908;-72
2021/12/11 15:05:03;;;;;;;;;;;;;;;;;;5113711;28;19907;-72
2021/12/11 15:07:29;;;;;;;;;;;;;;;;;;5113661;28;20321;-72
2021/12/11 15:09:54;;;;;;;;;;;;;;;;;;5113324;28;19927;-72
2021/12/11 15:12:20;;;;;;;;;;;;;;;;;;5113392;28;20356;-72
2021/12/11 15:14:46;;;;;;;;;;;;;;;;;;5113415;28;19907;-72
2021/12/11 15:17:12;;;;;;;;;;;;;;;;;;5113580;28;19965;-72
2021/12/11 15:19:38;;;;;;;;;;;;;;;;;;5113435;28;20312;-72
2021/12/11 15:22:04;;;;;;;;;;;;;;;;;;5113576;28;20078;-72
2021/12/11 15:24:30;;;;;;;;;;;;;;;;;;5113443;28;19961;-72
2021/12/11 15:26:56;;;;;;;;;;;;;;;;;;5113403;28;19908;-72
2021/12/11 15:29:22;;;;;;;;;;;;;;;;;;5113080;28;20252;-72
2021/12/11 15:31:47;;;;;;;;;;;;;;;;;;5113118;28;19920;-72
2021/12/11 15:34:13;;;;;;;;;;;;;;;;;;5106942;28;19916;-72
2021/12/11 15:36:39;;;;;;;;;;;;;;;;;;5092838;28;19961;-72
2021/12/11 15:39:05;;;;;;;;;;;;;;;;;;5092861;28;19947;-72
2021/12/11 15:41:31;;;;;;;;;;;;;;;;;;5092746;28;20375;-72
2021/12/11 15:43:57;;;;;;;;;;;;;;;;;;5092778;28;19908;-72
2021/12/11 15:46:23;;;;;;;;;;;;;;;;;;5092845;28;20279;-72
2021/12/11 15:48:49;;;;;;;;;;;;;;;;;;5096740;28;19908;-72
2021/12/11 15:51:15;;;;;;;;;;;;;;;;;;5096681;28;19920;-71
2021/12/11 15:53:41;;;;;;;;;;;;;;;;;;5096930;28;19908;-72
2021/12/11 15:56:08;;;;;;;;;;;;;;;;;;5096766;28;20360;-72
2021/12/11 15:58:34;;;;;;;;;;;;;;;;;;5096789;28;19915;-72
2021/12/11 16:01:00;;;;;;;;;;;;;;;;;;5096668;28;20394;-72
2021/12/11 16:03:26;;;;;;;;;;;;;;;;;;5096688;28;19943;-72
2021/12/11 16:05:52;;;;;;;;;;;;;;;;;;5096740;28;19908;-72
2021/12/11 16:08:18;;;;;;;;;;;;;;;;;;5096714;28;20006;-72
2021/12/11 16:10:44;;;;;;;;;;;;;;;;;;5095906;28;19920;-72
2021/12/11 16:13:09;;;;;;;;;;;;;;;;;;5096351;28;19924;-72
2021/12/11 16:15:35;;;;;;;;;;;;;;;;;;5096413;28;19909;-72
2021/12/11 16:18:01;;;;;;;;;;;;;;;;;;5096466;28;20329;-72
2021/12/11 16:20:27;;;;;;;;;;;;;;;;;;5096079;28;19934;-72
2021/12/11 16:22:53;;;;;;;;;;;;;;;;;;5095810;28;19919;-73
2021/12/11 16:25:20;;;;;;;;;;;;;;;;;;5076380;28;19909;-72
2021/12/11 16:27:46;;;;;;;;;;;;;;;;;;5075829;28;19912;-73
2021/12/11 16:30:12;;;;;;;;;;;;;;;;;;5075800;28;19978;-72
2021/12/11 16:32:38;;;;;;;;;;;;;;;;;;5075790;28;19913;-72
2021/12/11 16:35:04;;;;;;;;;;;;;;;;;;5075807;28;19987;-72
2021/12/11 16:37:30;;;;;;;;;;;;;;;;;;5075617;28;19908;-71
2021/12/11 16:39:56;;;;;;;;;;;;;;;;;;5075477;28;20356;-73
2021/12/11 16:42:22;;;;;;;;;;;;;;;;;;5075611;28;20349;-73
2021/12/11 16:44:48;;;;;;;;;;;;;;;;;;5075371;28;19950;-76
2021/12/11 16:47:14;;;;;;;;;;;;;;;;;;5075579;28;20359;-72
2021/12/11 16:49:41;;;;;;;;;;;;;;;;;;5075552;28;19991;-77
2021/12/11 16:52:07;;;;;;;;;;;;;;;;;;5075339;28;20399;-77